createdAt,value
2019-04-29T00:00:13.168Z,23.25
2019-04-29T00:02:18.863Z,23.65
2019-04-29T00:04:22.581Z,24.60
2019-04-29T00:06:26.679Z,25.85
2019-04-29T00:08:30.481Z,20.12
2019-04-29T00:10:34.430Z,26.27
2019-04-29T00:12:38.651Z,28.65
2019-04-29T00:14:44.849Z,26.48
2019-04-29T00:17:06.747Z,28.00
2019-04-29T00:19:20.858Z,26.30
2019-04-29T00:21:25.113Z,24.50
2019-04-29T00:23:29.201Z,26.68
2019-04-29T00:25:33.152Z,25.88
2019-04-29T00:27:36.977Z,26.40
2019-04-29T00:29:40.625Z,28.57
2019-04-29T00:31:44.603Z,26.20
2019-04-29T00:33:48.646Z,27.45
2019-04-29T00:35:52.782Z,25.40
2019-04-29T00:37:58.149Z,23.18
2019-04-29T00:40:06.426Z,24.32
2019-04-29T00:42:30.402Z,21.77
2019-04-29T00:44:34.161Z,25.62
2019-04-29T00:46:37.926Z,21.65
2019-04-29T00:48:41.646Z,25.30
2019-04-29T00:50:45.566Z,23.80
2019-04-29T00:52:49.774Z,26.57
2019-04-29T00:54:58.170Z,26.23
2019-04-29T00:57:02.198Z,26.70
2019-04-29T00:59:06.198Z,23.75
2019-04-29T01:01:13.375Z,24.70
2019-04-29T01:03:17.386Z,23.05
2019-04-29T01:05:21.144Z,26.50
2019-04-29T01:07:25.306Z,22.00
2019-04-29T01:09:29.753Z,24.52
2019-04-29T01:11:34.301Z,21.60
2019-04-29T01:13:38.032Z,24.18
2019-04-29T01:15:41.742Z,18.77
2019-04-29T01:17:45.849Z,24.85
2019-04-29T01:19:49.882Z,26.65
2019-04-29T01:21:53.577Z,25.43
2019-04-29T01:23:57.402Z,23.12
2019-04-29T01:26:09.026Z,24.92
2019-04-29T01:28:32.207Z,31.02
2019-04-29T01:30:41.537Z,32.98
2019-04-29T01:32:45.210Z,26.70
2019-04-29T01:34:50.879Z,26.57
2019-04-29T01:36:54.738Z,26.75
2019-04-29T01:39:00.101Z,26.27
2019-04-29T01:41:08.773Z,25.15
2019-04-29T01:43:12.847Z,26.48
2019-04-29T01:45:16.567Z,23.60
2019-04-29T01:47:20.654Z,20.40
2019-04-29T01:49:24.302Z,23.45
2019-04-29T01:51:28.466Z,23.07
2019-04-29T01:53:32.187Z,21.12
2019-04-29T01:55:36.400Z,21.10
2019-04-29T01:57:40.417Z,21.35
2019-04-29T01:59:44.680Z,21.87
2019-04-29T02:01:48.320Z,22.42
2019-04-29T02:03:51.973Z,20.25
2019-04-29T02:05:56.013Z,19.70
2019-04-29T02:07:59.746Z,17.87
2019-04-29T02:10:05.705Z,21.50
2019-04-29T02:12:09.425Z,18.12
2019-04-29T02:14:13.614Z,17.48
2019-04-29T02:16:17.786Z,17.17
2019-04-29T02:18:21.374Z,20.50
2019-04-29T02:20:25.445Z,14.90
2019-04-29T02:22:33.766Z,14.90
2019-04-29T02:24:39.155Z,17.10
2019-04-29T02:26:42.869Z,15.53
2019-04-29T02:28:47.402Z,14.60
2019-04-29T02:30:53.411Z,18.02
2019-04-29T02:32:57.094Z,13.38
2019-04-29T02:35:01.164Z,15.00
2019-04-29T02:37:06.518Z,15.13
2019-04-29T02:39:30.688Z,18.35
2019-04-29T02:41:38.986Z,17.70
2019-04-29T02:43:44.284Z,16.30
2019-04-29T02:45:47.970Z,19.35
2019-04-29T02:47:51.692Z,18.80
2019-04-29T02:49:55.550Z,17.67
2019-04-29T02:51:59.241Z,17.48
2019-04-29T02:54:03.105Z,16.62
2019-04-29T02:56:06.930Z,18.10
2019-04-29T02:58:14.969Z,19.25
2019-04-29T03:00:23.450Z,18.37
2019-04-29T03:02:37.880Z,19.67
2019-04-29T03:04:43.501Z,21.62
2019-04-29T03:06:47.309Z,23.65
2019-04-29T03:08:51.037Z,21.23
2019-04-29T03:10:55.105Z,22.90
2019-04-29T03:12:59.255Z,21.27
2019-04-29T03:15:03.867Z,19.77
2019-04-29T03:17:07.727Z,17.17
2019-04-29T03:19:13.394Z,17.52
2019-04-29T03:21:24.762Z,19.37
2019-04-29T03:23:28.707Z,14.20
2019-04-29T03:25:32.358Z,18.30
2019-04-29T03:27:37.732Z,19.90
2019-04-29T03:29:41.382Z,16.48
2019-04-29T03:31:45.042Z,19.15
2019-04-29T03:33:49.130Z,21.52
2019-04-29T03:35:53.141Z,15.98
2019-04-29T03:37:56.866Z,15.08
2019-04-29T03:40:00.975Z,15.48
2019-04-29T03:42:07.375Z,17.02
2019-04-29T03:44:10.329Z,14.43
2019-04-29T03:46:14.138Z,17.50
2019-04-29T03:48:17.930Z,17.10
2019-04-29T03:50:21.510Z,16.80
2019-04-29T03:52:25.230Z,16.23
2019-04-29T03:54:28.885Z,22.00
2019-04-29T03:56:32.827Z,24.32
2019-04-29T03:58:36.546Z,29.30
2019-04-29T04:00:44.091Z,27.45
2019-04-29T04:02:48.296Z,20.35
2019-04-29T04:04:53.846Z,21.20
2019-04-29T04:06:59.220Z,18.17
2019-04-29T04:09:10.697Z,20.45
2019-04-29T04:11:14.373Z,18.57
2019-04-29T04:13:18.421Z,17.67
2019-04-29T04:15:22.579Z,22.13
2019-04-29T04:17:27.881Z,23.62
2019-04-29T04:19:33.249Z,23.70
2019-04-29T04:21:37.262Z,21.80
2019-04-29T04:23:40.990Z,22.30
2019-04-29T04:25:45.027Z,21.37
2019-04-29T04:27:49.040Z,18.75
2019-04-29T04:29:52.975Z,17.65
2019-04-29T04:31:56.633Z,15.83
2019-04-29T04:34:00.638Z,18.02
2019-04-29T04:36:04.389Z,17.50
2019-04-29T04:38:08.098Z,19.98
2019-04-29T04:40:14.261Z,17.92
2019-04-29T04:42:18.155Z,17.00
2019-04-29T04:44:24.314Z,20.50
2019-04-29T04:46:28.075Z,20.72
2019-04-29T04:48:31.825Z,24.15
2019-04-29T04:50:35.956Z,23.62
2019-04-29T04:52:40.441Z,22.30
2019-04-29T04:54:45.753Z,22.93
2019-04-29T04:56:49.461Z,24.20
2019-04-29T04:58:53.134Z,23.12
2019-04-29T05:00:56.982Z,24.37
2019-04-29T05:03:00.961Z,25.45
2019-04-29T05:05:05.285Z,25.02
2019-04-29T05:07:09.013Z,24.52
2019-04-29T05:09:12.665Z,22.20
2019-04-29T05:11:16.589Z,27.00
2019-04-29T05:13:28.009Z,29.12
2019-04-29T05:15:26.099Z,31.75
2019-04-29T05:17:30.174Z,34.08
2019-04-29T05:19:34.050Z,29.67
2019-04-29T05:21:37.773Z,24.30
2019-04-29T05:23:41.835Z,27.32
2019-04-29T05:25:45.561Z,23.80
2019-04-29T05:27:49.298Z,28.23
2019-04-29T05:29:53.238Z,23.60
2019-04-29T05:31:56.961Z,21.65
2019-04-29T05:34:00.947Z,18.57
2019-04-29T05:36:23.670Z,19.55
2019-04-29T05:38:34.629Z,20.77
2019-04-29T05:40:49.127Z,22.55
2019-04-29T05:42:54.065Z,20.65
2019-04-29T05:45:08.450Z,22.52
2019-04-29T05:47:30.310Z,21.07
2019-04-29T05:49:42.854Z,21.77
2019-04-29T05:51:50.734Z,18.17
2019-04-29T05:54:02.103Z,17.30
2019-04-29T05:56:06.069Z,14.58
2019-04-29T05:58:11.381Z,17.60
2019-04-29T06:00:18.794Z,16.52
2019-04-29T06:02:24.017Z,18.65
2019-04-29T06:04:28.662Z,16.30
2019-04-29T06:06:32.002Z,17.57
2019-04-29T06:08:39.223Z,19.15
2019-04-29T06:10:42.090Z,16.07
2019-04-29T06:12:47.121Z,15.95
2019-04-29T06:14:51.082Z,15.53
2019-04-29T06:16:57.591Z,16.97
2019-04-29T06:19:02.895Z,17.00
2019-04-29T06:21:09.206Z,16.40
2019-04-29T06:23:10.806Z,20.95
2019-04-29T06:25:15.303Z,17.98
2019-04-29T06:27:19.050Z,17.70
2019-04-29T06:29:22.640Z,19.35
2019-04-29T06:31:27.285Z,16.85
2019-04-29T06:33:31.299Z,23.62
2019-04-29T06:35:35.438Z,22.15
2019-04-29T06:37:39.520Z,22.95
2019-04-29T06:39:43.333Z,21.17
2019-04-29T06:41:47.077Z,21.25
2019-04-29T06:43:54.210Z,34.53
2019-04-29T06:45:56.554Z,31.02
2019-04-29T06:48:00.289Z,36.20
2019-04-29T06:50:07.109Z,57.10
2019-04-29T06:52:10.863Z,67.53
2019-04-29T06:54:14.557Z,40.35
2019-04-29T06:56:18.210Z,44.23
2019-04-29T06:58:21.982Z,34.83
2019-04-29T07:00:25.852Z,33.18
2019-04-29T07:02:29.650Z,40.10
2019-04-29T07:04:38.419Z,25.68
2019-04-29T07:06:38.678Z,24.23
2019-04-29T07:08:42.397Z,25.32
2019-04-29T07:10:46.657Z,30.37
2019-04-29T07:12:50.285Z,31.05
2019-04-29T07:14:54.150Z,29.72
2019-04-29T07:17:00.757Z,39.03
2019-04-29T07:19:04.156Z,44.77
2019-04-29T07:21:11.951Z,42.98
2019-04-29T07:23:13.563Z,29.50
2019-04-29T07:25:17.295Z,31.73
2019-04-29T07:27:21.009Z,33.42
2019-04-29T07:29:29.716Z,39.95
2019-04-29T07:31:33.401Z,36.68
2019-04-29T07:33:35.296Z,32.65
2019-04-29T07:35:43.129Z,32.83
2019-04-29T07:37:44.939Z,34.90
2019-04-29T07:39:48.984Z,29.87
2019-04-29T07:41:53.775Z,31.70
2019-04-29T07:43:58.333Z,33.53
2019-04-29T07:46:05.386Z,39.45
2019-04-29T07:48:09.718Z,34.60
2019-04-29T07:50:13.772Z,38.40
2019-04-29T07:52:17.465Z,35.90
2019-04-29T07:54:21.378Z,39.33
2019-04-29T07:56:25.106Z,46.28
2019-04-29T07:58:28.833Z,41.98
2019-04-29T08:00:34.432Z,43.25
2019-04-29T08:02:38.498Z,41.68
2019-04-29T08:04:42.072Z,35.10
2019-04-29T08:06:47.066Z,33.33
2019-04-29T08:08:55.558Z,41.60
2019-04-29T08:10:57.497Z,41.42
2019-04-29T08:13:01.327Z,39.27
2019-04-29T08:15:09.774Z,40.17
2019-04-29T08:17:13.437Z,44.33
2019-04-29T08:19:17.469Z,42.30
2019-04-29T08:21:21.193Z,41.02
2019-04-29T08:23:24.924Z,52.35
2019-04-29T08:25:28.699Z,60.52
2019-04-29T08:27:39.532Z,58.10
2019-04-29T08:29:38.657Z,62.75
2019-04-29T08:31:42.282Z,65.35
2019-04-29T08:33:46.801Z,44.55
2019-04-29T08:35:52.609Z,111.75
2019-04-29T08:37:56.409Z,75.80
2019-04-29T08:40:15.458Z,65.08
2019-04-29T08:42:09.186Z,63.05
2019-04-29T08:44:30.890Z,66.70
2019-04-29T08:46:38.974Z,59.58
2019-04-29T08:48:45.763Z,52.08
2019-04-29T08:50:48.359Z,54.13
2019-04-29T08:52:52.046Z,86.05
2019-04-29T08:54:57.332Z,54.88
2019-04-29T08:57:04.238Z,58.50
2019-04-29T08:59:06.382Z,97.35
2019-04-29T09:01:10.052Z,88.25
2019-04-29T09:03:14.165Z,58.78
2019-04-29T09:08:34.590Z,50.85
2019-04-29T09:10:38.978Z,47.98
2019-04-29T09:12:42.590Z,52.33
2019-04-29T09:14:46.311Z,47.25
2019-04-29T09:16:50.037Z,39.60
2019-04-29T09:18:53.777Z,41.53
2019-04-29T09:20:57.323Z,50.52
2019-04-29T09:23:02.577Z,51.28
2019-04-29T09:25:26.371Z,32.45
2019-04-29T09:27:30.173Z,33.25
2019-04-29T09:29:34.909Z,36.35
2019-04-29T09:31:38.454Z,44.13
2019-04-29T09:33:44.083Z,43.23
2019-04-29T09:35:47.513Z,40.83
2019-04-29T09:37:53.857Z,36.00
2019-04-29T09:39:57.686Z,34.03
2019-04-29T09:42:12.950Z,28.27
2019-04-29T09:44:24.374Z,38.35
2019-04-29T09:46:34.091Z,29.57
2019-04-29T09:48:35.237Z,37.98
2019-04-29T09:50:40.868Z,57.43
2019-04-29T09:52:44.357Z,38.80
2019-04-29T09:54:48.182Z,37.03
2019-04-29T09:56:52.090Z,33.53
2019-04-29T09:59:14.145Z,31.20
2019-04-29T10:01:20.897Z,38.20
2019-04-29T10:03:29.011Z,29.00
2019-04-29T10:05:34.434Z,36.13
2019-04-29T10:07:38.157Z,32.05
2019-04-29T10:09:42.038Z,28.95
2019-04-29T10:11:46.426Z,30.50
2019-04-29T10:13:50.109Z,25.20
2019-04-29T10:16:02.153Z,29.30
2019-04-29T10:18:07.834Z,29.65
2019-04-29T10:20:25.182Z,32.17
2019-04-29T10:22:29.605Z,26.25
2019-04-29T10:24:33.433Z,24.07
2019-04-29T10:26:37.052Z,27.13
2019-04-29T10:28:48.717Z,25.08
2019-04-29T10:30:52.630Z,26.02
2019-04-29T10:32:56.245Z,27.25
2019-04-29T10:35:03.624Z,25.97
2019-04-29T10:37:07.008Z,20.57
2019-04-29T10:39:22.560Z,26.55
2019-04-29T10:41:36.074Z,30.30
2019-04-29T10:43:41.998Z,25.25
2019-04-29T10:46:03.735Z,23.57
2019-04-29T10:48:09.913Z,27.27
2019-04-29T10:50:17.045Z,24.70
2019-04-29T10:52:20.742Z,21.17
2019-04-29T10:54:24.730Z,21.85
2019-04-29T10:56:28.384Z,20.48
2019-04-29T10:58:35.575Z,21.60
2019-04-29T11:01:13.515Z,20.72
2019-04-29T11:05:24.461Z,18.77
2019-04-29T11:07:32.981Z,19.80
2019-04-29T11:09:41.250Z,19.07
2019-04-29T11:11:45.941Z,16.27
2019-04-29T11:13:50.642Z,15.35
2019-04-29T11:15:54.440Z,19.23
2019-04-29T11:18:00.606Z,15.72
2019-04-29T11:20:06.105Z,27.85
2019-04-29T11:22:11.828Z,21.68
2019-04-29T11:24:32.523Z,19.85
2019-04-29T11:26:40.462Z,22.02
2019-04-29T11:28:46.998Z,21.00
2019-04-29T11:30:51.082Z,18.12
2019-04-29T11:33:12.678Z,22.67
2019-04-29T11:35:20.692Z,19.10
2019-04-29T11:37:24.833Z,17.05
2019-04-29T11:39:28.521Z,23.00
2019-04-29T11:41:32.634Z,26.85
2019-04-29T11:43:36.318Z,26.07
2019-04-29T11:45:40.350Z,27.05
2019-04-29T11:47:44.334Z,24.70
2019-04-29T11:49:54.158Z,27.80
2019-04-29T11:54:02.632Z,25.72
2019-04-29T11:56:06.350Z,27.80
2019-04-29T11:58:12.177Z,33.18
2019-04-29T12:00:34.389Z,32.93
2019-04-29T12:02:48.919Z,33.70
2019-04-29T12:04:57.187Z,34.10
2019-04-29T12:07:00.797Z,33.42
2019-04-29T12:09:06.895Z,41.18
2019-04-29T12:11:11.444Z,38.70
2019-04-29T12:13:18.880Z,45.43
2019-04-29T12:15:26.984Z,70.52
2019-04-29T12:17:41.958Z,50.80
2019-04-29T12:19:47.218Z,39.98
2019-04-29T12:21:51.638Z,65.62
2019-04-29T12:23:57.049Z,46.77
2019-04-29T12:26:03.047Z,43.95
2019-04-29T12:28:18.815Z,43.33
2019-04-29T12:30:13.783Z,42.27
2019-04-29T12:32:20.524Z,42.00
2019-04-29T12:34:38.206Z,42.98
2019-04-29T12:36:54.748Z,51.80
2019-04-29T12:38:52.438Z,56.20
2019-04-29T12:41:20.513Z,55.15
2019-04-29T12:43:19.846Z,53.30
2019-04-29T12:45:31.101Z,58.80
2019-04-29T12:47:36.660Z,58.73
2019-04-29T12:49:42.442Z,56.92
2019-04-29T12:51:45.746Z,53.87
2019-04-29T12:53:49.294Z,47.03
2019-04-29T12:55:55.559Z,49.33
2019-04-29T12:57:59.702Z,48.48
2019-04-29T13:00:07.708Z,39.05
2019-04-29T13:02:14.248Z,39.40
2019-04-29T13:04:35.887Z,77.05
2019-04-29T13:06:50.067Z,61.35
2019-04-29T13:09:01.804Z,45.78
2019-04-29T13:11:07.430Z,70.80
2019-04-29T13:13:11.466Z,71.25
2019-04-29T13:15:33.912Z,47.43
2019-04-29T13:17:40.140Z,42.85
2019-04-29T13:19:50.249Z,44.95
2019-04-29T13:21:51.325Z,42.67
2019-04-29T13:24:12.102Z,58.63
2019-04-29T13:26:01.083Z,59.48
2019-04-29T13:28:05.270Z,49.83
2019-04-29T13:32:17.909Z,39.18
2019-04-29T13:33:22.277Z,43.38
2019-04-29T13:34:24.780Z,38.02
2019-04-29T13:36:28.217Z,48.10
2019-04-29T13:38:31.728Z,57.50
2019-04-29T13:40:37.762Z,55.00
2019-04-29T13:42:48.537Z,46.40
2019-04-29T13:45:05.120Z,49.30
2019-04-29T13:47:10.262Z,66.20
2019-04-29T13:49:24.485Z,42.35
2019-04-29T13:51:35.933Z,39.53
2019-04-29T13:53:37.818Z,50.00
2019-04-29T13:55:49.934Z,43.87
2019-04-29T13:57:49.593Z,36.08
2019-04-29T13:59:54.445Z,39.53
2019-04-29T14:02:04.316Z,44.80
2019-04-29T14:04:07.257Z,42.25
2019-04-29T14:06:14.404Z,41.45
2019-04-29T14:08:16.416Z,35.40
2019-04-29T14:10:20.318Z,40.05
2019-04-29T14:12:47.982Z,40.10
2019-04-29T14:14:30.264Z,44.33
2019-04-29T14:16:33.857Z,48.23
2019-04-29T14:18:37.541Z,45.63
2019-04-29T14:20:41.491Z,38.90
2019-04-29T14:22:45.392Z,44.50
2019-04-29T14:24:49.001Z,64.97
2019-04-29T14:26:52.722Z,98.35
2019-04-29T14:28:56.269Z,84.22
2019-04-29T14:30:59.985Z,160.88
2019-04-29T14:33:03.648Z,139.12
2019-04-29T14:35:11.876Z,86.30
2019-04-29T14:37:25.322Z,83.05
2019-04-29T14:39:35.927Z,51.60
2019-04-29T14:41:26.149Z,71.00
2019-04-29T14:43:43.543Z,71.87
2019-04-29T14:45:48.734Z,72.00
2019-04-29T14:48:10.540Z,49.35
2019-04-29T14:50:19.968Z,47.65
2019-04-29T14:52:20.707Z,51.25
2019-04-29T14:54:24.319Z,51.98
2019-04-29T14:56:27.934Z,71.95
2019-04-29T14:58:31.739Z,62.78
2019-04-29T15:00:41.979Z,63.63
2019-04-29T15:02:46.406Z,66.80
2019-04-29T15:04:50.338Z,63.98
2019-04-29T15:06:54.964Z,60.73
2019-04-29T15:08:58.668Z,68.30
2019-04-29T15:11:04.117Z,74.40
2019-04-29T15:13:20.767Z,70.40
2019-04-29T15:15:18.543Z,73.65
2019-04-29T15:17:44.989Z,61.35
2019-04-29T15:19:54.769Z,81.53
2019-04-29T15:21:59.334Z,123.87
2019-04-29T15:24:03.210Z,130.95
2019-04-29T15:26:07.142Z,104.40
2019-04-29T15:28:10.686Z,96.15
2019-04-29T15:30:15.763Z,103.15
2019-04-29T15:32:22.167Z,85.77
2019-04-29T15:34:25.069Z,93.80
2019-04-29T15:36:30.730Z,88.15
2019-04-29T15:38:34.638Z,87.57
2019-04-29T15:40:42.988Z,82.70
2019-04-29T15:42:48.978Z,82.40
2019-04-29T15:44:51.598Z,83.00
2019-04-29T15:46:55.390Z,90.45
2019-04-29T15:49:00.793Z,80.50
2019-04-29T15:51:04.335Z,84.37
2019-04-29T15:53:08.724Z,100.18
2019-04-29T15:55:12.425Z,83.85
2019-04-29T15:57:16.360Z,75.40
2019-04-29T15:59:20.545Z,86.78
2019-04-29T16:01:28.360Z,96.17
2019-04-29T16:03:30.134Z,74.82
2019-04-29T16:05:56.175Z,85.05
2019-04-29T16:08:03.646Z,94.80
2019-04-29T16:10:20.582Z,180.55
2019-04-29T16:12:38.183Z,140.57
2019-04-29T16:14:41.793Z,108.87
2019-04-29T16:16:45.542Z,94.32
2019-04-29T16:18:49.445Z,111.85
2019-04-29T16:20:54.147Z,175.07
2019-04-29T16:23:00.791Z,106.25
2019-04-29T16:25:04.931Z,109.12
2019-04-29T16:27:10.545Z,124.07
2019-04-29T16:29:15.451Z,140.92
2019-04-29T16:31:19.634Z,153.87
2019-04-29T16:33:23.542Z,152.05
2019-04-29T16:35:34.464Z,144.45
2019-04-29T16:37:33.378Z,142.80
2019-04-29T16:39:37.329Z,212.65
2019-04-29T16:41:51.121Z,157.80
2019-04-29T16:43:53.302Z,130.50
2019-04-29T16:46:16.729Z,307.80
2019-04-29T16:48:20.429Z,348.43
2019-04-29T16:50:24.498Z,139.47
2019-04-29T16:52:28.246Z,138.77
2019-04-29T16:54:32.120Z,181.52
2019-04-29T16:56:38.799Z,120.77
2019-04-29T16:58:42.653Z,215.37
2019-04-29T17:00:52.170Z,175.70
2019-04-29T17:02:51.761Z,179.95
2019-04-29T17:04:55.598Z,174.27
2019-04-29T17:07:12.483Z,159.30
2019-04-29T17:09:08.270Z,229.65
2019-04-29T17:11:28.813Z,372.75
2019-04-29T17:13:32.305Z,409.15
2019-04-29T17:15:36.262Z,583.30
2019-04-29T17:17:39.801Z,424.75
2019-04-29T17:19:44.334Z,281.95
2019-04-29T17:21:48.272Z,653.17
2019-04-29T17:23:52.166Z,293.50
2019-04-29T17:25:56.529Z,176.95
2019-04-29T17:28:11.773Z,142.03
2019-04-29T17:30:31.515Z,179.07
2019-04-29T17:32:47.068Z,222.00
2019-04-29T17:34:58.880Z,767.95
2019-04-29T17:36:54.895Z,515.88
2019-04-29T17:38:58.793Z,632.45
2019-04-29T17:41:02.444Z,171.10
2019-04-29T17:43:08.194Z,153.70
2019-04-29T17:45:27.212Z,121.90
2019-04-29T17:47:23.033Z,130.20
2019-04-29T17:49:30.859Z,163.20
2019-04-29T17:51:36.181Z,151.95
2019-04-29T17:53:47.220Z,165.05
2019-04-29T17:55:52.513Z,112.80
2019-04-29T17:57:58.001Z,137.52
2019-04-29T18:00:08.803Z,115.35
2019-04-29T18:02:25.330Z,122.20
2019-04-29T18:04:39.089Z,110.57
2019-04-29T18:07:10.407Z,135.05
2019-04-29T18:09:26.001Z,115.30
2019-04-29T18:11:29.552Z,129.87
2019-04-29T18:13:35.121Z,113.77
2019-04-29T18:15:57.888Z,132.45
2019-04-29T18:17:47.794Z,162.75
2019-04-29T18:19:58.841Z,150.07
2019-04-29T18:22:16.240Z,173.70
2019-04-29T18:24:29.472Z,166.00
2019-04-29T18:26:52.729Z,176.97
2019-04-29T18:29:03.415Z,182.97
2019-04-29T18:31:05.789Z,205.27
2019-04-29T18:33:09.605Z,198.20
2019-04-29T18:35:13.410Z,212.15
2019-04-29T18:37:17.317Z,254.18
2019-04-29T18:39:31.299Z,277.75
2019-04-29T18:41:35.487Z,375.27
2019-04-29T18:43:39.169Z,341.80
2019-04-29T18:45:53.893Z,273.87
2019-04-29T18:47:48.342Z,386.05
2019-04-29T18:49:52.216Z,323.23
2019-04-29T18:51:58.021Z,334.73
2019-04-29T18:54:01.144Z,334.10
2019-04-29T18:56:05.322Z,336.90
2019-04-29T18:58:09.303Z,382.83
2019-04-29T19:00:19.278Z,403.82
2019-04-29T19:02:19.404Z,350.55
2019-04-29T19:04:25.561Z,323.95
2019-04-29T19:06:29.121Z,391.40
2019-04-29T19:08:32.661Z,332.00
2019-04-29T19:10:37.403Z,361.48
2019-04-29T19:12:41.513Z,326.90
2019-04-29T19:14:47.775Z,381.27
2019-04-29T19:16:52.735Z,370.50
2019-04-29T19:19:01.665Z,398.32
2019-04-29T19:21:03.825Z,363.95
2019-04-29T19:23:10.109Z,448.43
2019-04-29T19:25:15.297Z,492.83
2019-04-29T19:27:19.015Z,503.45
2019-04-29T19:29:23.886Z,557.08
2019-04-29T19:31:27.927Z,476.37
2019-04-29T19:33:35.657Z,339.10
2019-04-29T19:35:38.682Z,431.70
2019-04-29T19:37:44.910Z,390.07
2019-04-29T19:39:52.428Z,426.13
2019-04-29T19:41:55.715Z,316.77
2019-04-29T19:43:59.645Z,299.55
2019-04-29T19:46:05.694Z,260.30
2019-04-29T19:48:09.401Z,283.02
2019-04-29T19:50:16.713Z,278.02
2019-04-29T19:52:30.439Z,310.40
2019-04-29T19:54:28.420Z,288.27
2019-04-29T19:56:30.446Z,266.65
2019-04-29T19:58:34.388Z,257.27
2019-04-29T20:00:39.615Z,293.97
2019-04-29T20:02:48.162Z,262.80
2019-04-29T20:04:54.163Z,262.15
2019-04-29T20:07:05.652Z,268.82
2019-04-29T20:09:16.141Z,271.30
2019-04-29T20:11:14.767Z,263.95
2019-04-29T20:13:17.145Z,249.90
2019-04-29T20:15:22.139Z,240.22
2019-04-29T20:17:47.094Z,246.00
2019-04-29T20:19:56.006Z,237.65
2019-04-29T20:22:00.413Z,266.85
2019-04-29T20:24:02.034Z,401.48
2019-04-29T20:26:15.689Z,377.22
2019-04-29T20:28:17.266Z,412.30
2019-04-29T20:30:20.837Z,283.00
2019-04-29T20:32:27.789Z,276.23
2019-04-29T20:34:28.682Z,291.00
2019-04-29T20:36:40.861Z,261.82
2019-04-29T20:38:38.999Z,264.60
2019-04-29T20:40:43.909Z,263.68
2019-04-29T20:42:49.131Z,253.95
2019-04-29T20:44:53.044Z,256.68
2019-04-29T20:47:16.578Z,250.40
2019-04-29T20:49:05.700Z,227.93
2019-04-29T20:51:13.161Z,222.05
2019-04-29T20:53:16.193Z,219.57
2019-04-29T20:55:21.029Z,220.60
2019-04-29T20:57:25.836Z,223.32
2019-04-29T20:59:30.382Z,250.30
2019-04-29T21:01:42.921Z,242.32
2019-04-29T21:03:48.748Z,235.85
2019-04-29T21:05:50.286Z,244.77
2019-04-29T21:08:03.024Z,257.32
2019-04-29T21:09:59.892Z,242.93
2019-04-29T21:12:12.845Z,254.90
2019-04-29T21:14:33.968Z,264.45
2019-04-29T21:16:34.137Z,250.43
2019-04-29T21:18:38.858Z,249.60
2019-04-29T21:20:44.991Z,255.35
2019-04-29T21:22:48.376Z,248.82
2019-04-29T21:24:53.863Z,243.95
2019-04-29T21:26:57.533Z,267.18
2019-04-29T21:29:01.325Z,215.68
2019-04-29T21:31:05.340Z,239.95
2019-04-29T21:33:18.298Z,277.82
2019-04-29T21:35:32.345Z,274.05
2019-04-29T21:37:40.093Z,252.05
2019-04-29T21:39:55.043Z,283.27
2019-04-29T21:42:05.684Z,266.35
2019-04-29T21:44:08.993Z,299.77
2019-04-29T21:46:12.665Z,296.12
2019-04-29T21:48:16.562Z,315.18
2019-04-29T21:50:20.569Z,300.22
2019-04-29T21:52:25.365Z,280.40
2019-04-29T21:54:28.893Z,278.32
2019-04-29T21:56:32.465Z,320.45
2019-04-29T21:58:36.289Z,366.80
2019-04-29T22:00:40.182Z,334.95
2019-04-29T22:02:46.609Z,318.37
2019-04-29T22:04:49.306Z,278.77
2019-04-29T22:06:53.028Z,257.02
2019-04-29T22:09:01.339Z,251.10
2019-04-29T22:11:05.046Z,207.22
2019-04-29T22:13:08.985Z,215.92
2019-04-29T22:15:15.825Z,209.03
2019-04-29T22:17:19.753Z,190.03
2019-04-29T22:19:26.745Z,183.37
2019-04-29T22:21:29.281Z,186.57
2019-04-29T22:23:32.827Z,203.25
2019-04-29T22:25:41.016Z,186.05
2019-04-29T22:27:42.372Z,176.22
2019-04-29T22:29:47.512Z,163.45
2019-04-29T22:31:51.238Z,165.07
2019-04-29T22:33:55.256Z,222.82
2019-04-29T22:35:59.993Z,191.15
2019-04-29T22:38:07.735Z,190.88
2019-04-29T22:40:09.848Z,202.87
2019-04-29T22:42:23.664Z,182.72
2019-04-29T22:44:26.877Z,171.70
2019-04-29T22:46:30.456Z,168.32
2019-04-29T22:48:34.951Z,156.82
2019-04-29T22:50:39.592Z,139.03
2019-04-29T22:52:45.202Z,161.00
2019-04-29T22:54:48.514Z,146.55
2019-04-29T22:56:54.182Z,143.55
2019-04-29T22:58:57.297Z,141.75
2019-04-29T23:01:02.565Z,141.68
2019-04-29T23:03:06.036Z,134.45
2019-04-29T23:05:09.744Z,123.85
2019-04-29T23:07:13.301Z,127.85
2019-04-29T23:09:16.911Z,124.82
2019-04-29T23:11:20.489Z,128.87
2019-04-29T23:13:26.838Z,119.65
2019-04-29T23:15:29.822Z,120.33
2019-04-29T23:17:33.295Z,112.75
2019-04-29T23:19:36.977Z,134.60
2019-04-29T23:21:47.213Z,119.22
2019-04-29T23:26:14.856Z,382.32
2019-04-29T23:28:22.475Z,88.07
2019-04-29T23:30:26.637Z,101.65
2019-04-29T23:32:30.478Z,96.02
2019-04-29T23:34:36.298Z,108.42
2019-04-29T23:36:39.501Z,116.55
2019-04-29T23:38:44.118Z,109.40
2019-04-29T23:40:49.708Z,123.67
2019-04-29T23:42:53.481Z,125.80
2019-04-29T23:44:57.876Z,112.17
2019-04-29T23:47:05.134Z,97.00
2019-04-29T23:49:06.942Z,100.97
2019-04-29T23:51:10.945Z,91.32
2019-04-29T23:53:14.489Z,91.08
2019-04-29T23:55:20.575Z,80.95
2019-04-29T23:57:28.417Z,84.77
2019-04-29T23:59:54.563Z,84.42
